Dragor, Denmark
Current Conditions -  °F | °C
As of 3:20 AM on Saturday 29 Nov 2014 (Local Time) from EKCH Reporting Station
Broken Clouds Broken Clouds  
Wind Chill: 30°   Ceiling: 3000
Heat Index: 39°   Visibility: 6mi
Dew Point: 28°   Wind: 17mph
Humidity: 65%   Direction: 100°E
Pressure: 30.33"   Gusts: NA
Location:  55.59°N, 12.67°E
Report Text: EKCH 290220Z 10015KT 9999 SCT026 BKN030 04/M02 Q1027 NOSIG
Loading
Personal Weather Stations






























Interactive Weather Map New forecast layout! Learn more

10-Day Weather Forecast

Advertisements
Track Severe Weather on mobile